Disclaimer

Please do not use the information listed here in-flight or in-navigation, as they are not provided to us by the airports but are provided by volunteers, so they might be outdated.

Search


Regions


Airport information page

Radio informations:
WINNIPEG RDO - 122.2 MHz
WINNIPEG CNTR - 135.625 MHz

Airport informations:
Latitude: 53° 58' 17.00" N
Longitude: 101° 05' 28.00" W
Elevation: 887 feet - 270 meters
Operating hours: N/A
Operating agency: Municipal
Timezone: Second Sunday in March at 0200 to first Sunday in November at 0200 local time (Exception Arizona and that portion of Indiana in the Eastern Time Zone)
Fuel: Jet B, Wide cut turbine fuel, Without icing inhibitor.

100/130 MIL Spec, low lead, aviation gasoline (BLUE)

Runway information:
13/31 - 5900 x 150 feet< - >1798 x 46 meters

Recent METARs:
CYQD 181700Z AUTO 02006KT 340V050 9SM OVC025 M15/M21 A3015 RMK SLP240
CYQD 181831Z AUTO 34004KT 320V060 9SM BKN023 M15/M21 A3016 RMK SLP242
CYQD 181831Z AUTO 34004KT 320V060 9SM BKN023 M15/M21 A3016 RMK SLP242

Airport on the map: